createdAt,value
2022-08-23T00:01:31.178Z,18.72
2022-08-23T00:03:34.413Z,18.63
2022-08-23T00:05:37.341Z,17.73
2022-08-23T00:07:41.017Z,18.58
2022-08-23T00:09:44.304Z,18.51
2022-08-23T00:11:50.909Z,18.45
2022-08-23T00:13:53.874Z,18.45
2022-08-23T00:15:58.013Z,17.59
2022-08-23T00:18:01.543Z,18.38
2022-08-23T00:20:05.295Z,18.37
2022-08-23T00:22:09.377Z,18.36
2022-08-23T00:24:13.631Z,18.34
2022-08-23T00:26:16.467Z,18.35
2022-08-23T00:28:19.263Z,18.34
2022-08-23T00:30:22.174Z,18.29
2022-08-23T00:32:29.058Z,15.04
2022-08-23T00:34:32.243Z,18.26
2022-08-23T00:36:35.480Z,16.23
2022-08-23T00:38:38.637Z,18.26
2022-08-23T00:40:43.278Z,16.67
2022-08-23T00:43:17.421Z,18.15
2022-08-23T00:45:42.463Z,16.98
2022-08-23T00:47:47.569Z,18.11
2022-08-23T00:49:57.272Z,18.07
2022-08-23T00:52:07.501Z,17.99
2022-08-23T00:54:11.552Z,17.83
2022-08-23T00:56:18.300Z,17.78
2022-08-23T00:58:23.158Z,17.84
2022-08-23T01:00:27.699Z,17.82
2022-08-23T01:02:30.595Z,17.79
2022-08-23T01:04:40.585Z,17.78
2022-08-23T01:06:51.512Z,16.17
2022-08-23T01:09:00.920Z,17.06
2022-08-23T01:11:08.842Z,17.15
2022-08-23T01:13:16.691Z,17.71
2022-08-23T01:15:24.291Z,17.00
2022-08-23T01:17:31.050Z,17.57
2022-08-23T01:19:38.666Z,17.55
2022-08-23T01:21:47.952Z,17.55
2022-08-23T01:23:56.142Z,16.92
2022-08-23T01:25:59.397Z,17.60
2022-08-23T01:28:02.329Z,17.61
2022-08-23T01:30:06.900Z,17.51
2022-08-23T01:32:11.473Z,17.40
2022-08-23T01:34:18.210Z,15.02
2022-08-23T01:36:22.086Z,16.42
2022-08-23T01:38:28.003Z,17.08
2022-08-23T01:40:38.394Z,15.62
2022-08-23T01:42:42.994Z,17.18
2022-08-23T01:44:47.896Z,17.16
2022-08-23T01:46:50.947Z,17.18
2022-08-23T01:49:00.690Z,17.17
2022-08-23T01:51:06.666Z,17.27
2022-08-23T01:53:11.198Z,17.29
2022-08-23T01:55:18.039Z,17.27
2022-08-23T01:57:22.964Z,17.27
2022-08-23T01:59:27.624Z,16.72
2022-08-23T02:01:31.869Z,17.21
2022-08-23T02:03:37.199Z,17.20
2022-08-23T02:05:42.732Z,17.22
2022-08-23T02:07:47.489Z,17.24
2022-08-23T02:09:50.341Z,17.21
2022-08-23T02:11:53.171Z,17.16
2022-08-23T02:14:00.360Z,17.13
2022-08-23T02:16:10.154Z,17.08
2022-08-23T02:18:19.325Z,17.02
2022-08-23T02:20:22.455Z,16.91
2022-08-23T02:22:25.262Z,16.92
2022-08-23T02:24:28.367Z,16.91
2022-08-23T02:26:31.575Z,16.88
2022-08-23T02:28:34.737Z,15.18
2022-08-23T02:30:40.106Z,16.91
2022-08-23T02:32:45.645Z,16.62
2022-08-23T02:35:04.912Z,16.40
2022-08-23T02:37:12.683Z,16.33
2022-08-23T02:39:17.142Z,16.49
2022-08-23T02:41:20.562Z,16.58
2022-08-23T02:43:23.550Z,16.62
2022-08-23T02:45:26.575Z,16.59
2022-08-23T02:47:31.333Z,16.64
2022-08-23T02:49:44.480Z,16.55
2022-08-23T02:51:47.389Z,13.02
2022-08-23T02:53:50.548Z,16.59
2022-08-23T02:55:58.551Z,16.51
2022-08-23T02:58:01.570Z,16.53
2022-08-23T03:00:06.909Z,15.86
2022-08-23T03:02:09.798Z,14.75
2022-08-23T03:04:18.434Z,16.45
2022-08-23T03:06:25.660Z,16.40
2022-08-23T03:08:29.083Z,16.36
2022-08-23T03:10:32.267Z,16.31
2022-08-23T03:12:37.568Z,14.94
2022-08-23T03:14:41.071Z,15.08
2022-08-23T03:16:44.153Z,16.16
2022-08-23T03:18:49.927Z,16.21
2022-08-23T03:20:54.162Z,15.79
2022-08-23T03:22:57.268Z,16.32
2022-08-23T03:25:01.465Z,16.44
2022-08-23T03:27:16.092Z,15.70
2022-08-23T03:29:20.553Z,15.91
2022-08-23T03:31:37.743Z,16.62
2022-08-23T03:33:45.843Z,14.97
2022-08-23T03:35:49.934Z,16.01
2022-08-23T03:37:55.400Z,16.70
2022-08-23T03:39:59.321Z,16.73
2022-08-23T03:42:02.502Z,16.73
2022-08-23T03:44:08.599Z,16.44
2022-08-23T03:46:23.022Z,16.63
2022-08-23T03:48:29.865Z,16.57
2022-08-23T03:50:32.627Z,16.57
2022-08-23T03:52:35.440Z,16.59
2022-08-23T03:54:40.290Z,16.59
2022-08-23T03:56:53.763Z,15.78
2022-08-23T03:58:58.265Z,16.43
2022-08-23T04:01:01.432Z,16.17
2022-08-23T04:03:04.471Z,15.93
2022-08-23T04:05:12.423Z,16.08
2022-08-23T04:07:55.129Z,16.05
2022-08-23T04:10:01.767Z,16.04
2022-08-23T04:12:11.940Z,16.07
2022-08-23T04:14:21.132Z,16.09
2022-08-23T04:16:24.023Z,15.02
2022-08-23T04:18:30.048Z,16.12
2022-08-23T04:20:33.106Z,16.08
2022-08-23T04:22:39.731Z,16.02
2022-08-23T04:24:43.692Z,16.00
2022-08-23T04:26:49.510Z,15.95
2022-08-23T04:28:53.245Z,15.86
2022-08-23T04:30:56.287Z,15.82
2022-08-23T04:33:01.634Z,14.57
2022-08-23T04:35:08.074Z,15.63
2022-08-23T04:37:11.724Z,15.19
2022-08-23T04:39:14.520Z,14.94
2022-08-23T04:41:35.566Z,15.01
2022-08-23T04:43:40.046Z,14.12
2022-08-23T04:45:43.468Z,13.64
2022-08-23T04:47:56.525Z,15.34
2022-08-23T04:49:59.351Z,15.51
2022-08-23T04:52:02.143Z,15.65
2022-08-23T04:54:07.791Z,15.72
2022-08-23T04:56:36.923Z,14.94
2022-08-23T04:58:41.595Z,15.85
2022-08-23T05:00:47.177Z,15.89
2022-08-23T05:02:56.412Z,15.86
2022-08-23T05:05:00.434Z,15.93
2022-08-23T05:07:04.064Z,15.93
2022-08-23T05:09:06.990Z,15.90
2022-08-23T05:11:12.018Z,15.89
2022-08-23T05:13:17.061Z,15.98
2022-08-23T05:15:21.529Z,16.03
2022-08-23T05:17:31.624Z,16.12
2022-08-23T05:19:35.170Z,16.05
2022-08-23T05:21:42.452Z,16.16
2022-08-23T05:23:50.923Z,16.20
2022-08-23T05:25:59.371Z,16.20
2022-08-23T05:28:10.562Z,16.30
2022-08-23T05:30:16.635Z,16.34
2022-08-23T05:32:21.683Z,15.36
2022-08-23T05:34:25.482Z,16.39
2022-08-23T05:36:31.172Z,16.39
2022-08-23T05:38:35.029Z,16.44
2022-08-23T05:40:38.398Z,16.37
2022-08-23T05:42:45.821Z,16.47
2022-08-23T05:44:48.605Z,16.49
2022-08-23T05:46:53.169Z,14.71
2022-08-23T05:49:15.598Z,16.63
2022-08-23T05:51:26.247Z,15.95
2022-08-23T05:53:29.465Z,14.85
2022-08-23T05:55:34.957Z,16.42
2022-08-23T05:57:52.218Z,16.69
2022-08-23T05:59:55.624Z,16.76
2022-08-23T06:01:58.652Z,16.86
2022-08-23T06:04:01.697Z,16.57
2022-08-23T06:06:06.958Z,15.41
2022-08-23T06:08:09.944Z,17.00
2022-08-23T06:10:15.827Z,17.04
2022-08-23T06:12:22.243Z,16.99
2022-08-23T06:14:25.298Z,16.57
2022-08-23T06:16:30.860Z,16.91
2022-08-23T06:18:33.992Z,17.16
2022-08-23T06:21:02.038Z,17.68
2022-08-23T06:23:16.927Z,17.82
2022-08-23T06:25:20.492Z,17.91
2022-08-23T06:27:29.539Z,18.03
2022-08-23T06:29:32.825Z,18.11
2022-08-23T06:31:55.843Z,18.25
2022-08-23T06:34:04.405Z,18.37
2022-08-23T06:36:26.099Z,18.50
2022-08-23T06:38:41.995Z,18.61
2022-08-23T06:41:07.464Z,18.80
2022-08-23T06:43:37.407Z,18.91
2022-08-23T06:45:55.110Z,19.01
2022-08-23T06:48:01.224Z,18.68
2022-08-23T06:50:05.456Z,19.27
2022-08-23T06:52:28.323Z,19.39
2022-08-23T06:54:37.773Z,19.46
2022-08-23T06:56:56.734Z,19.59
2022-08-23T06:59:09.988Z,19.71
2022-08-23T07:01:45.563Z,19.78
2022-08-23T07:04:13.997Z,19.91
2022-08-23T07:06:44.949Z,19.91
2022-08-23T07:08:47.769Z,20.17
2022-08-23T07:10:53.675Z,20.34
2022-08-23T07:12:57.119Z,20.11
2022-08-23T07:15:00.137Z,20.47
2022-08-23T07:17:03.616Z,20.57
2022-08-23T07:19:07.560Z,20.65
2022-08-23T07:21:10.505Z,20.75
2022-08-23T07:23:17.547Z,20.58
2022-08-23T07:25:20.690Z,20.89
2022-08-23T07:27:29.336Z,21.01
2022-08-23T07:29:39.590Z,20.96
2022-08-23T07:31:44.586Z,19.38
2022-08-23T07:33:48.824Z,21.26
2022-08-23T07:35:55.778Z,21.27
2022-08-23T07:37:59.210Z,21.32
2022-08-23T07:40:08.761Z,21.39
2022-08-23T07:42:23.652Z,21.52
2022-08-23T07:44:31.653Z,21.64
2022-08-23T07:46:39.739Z,21.77
2022-08-23T07:48:53.971Z,21.84
2022-08-23T07:51:07.848Z,21.90
2022-08-23T07:53:10.656Z,22.00
2022-08-23T07:55:13.690Z,22.06
2022-08-23T07:57:54.923Z,22.18
2022-08-23T08:00:09.523Z,21.92
2022-08-23T08:02:28.747Z,22.54
2022-08-23T08:04:31.821Z,22.66
2022-08-23T08:06:37.105Z,22.69
2022-08-23T08:08:41.421Z,22.37
2022-08-23T08:10:44.263Z,22.49
2022-08-23T08:12:47.360Z,22.96
2022-08-23T08:14:55.096Z,23.00
2022-08-23T08:17:04.582Z,23.10
2022-08-23T08:19:22.613Z,23.21
2022-08-23T08:21:45.412Z,22.40
2022-08-23T08:24:09.823Z,23.47
2022-08-23T08:26:29.071Z,23.53
2022-08-23T08:28:34.266Z,23.68
2022-08-23T08:30:37.000Z,23.86
2022-08-23T08:32:47.200Z,24.08
2022-08-23T08:34:51.018Z,24.15
2022-08-23T08:36:57.986Z,23.14
2022-08-23T08:39:02.724Z,24.45
2022-08-23T08:41:12.620Z,23.85
2022-08-23T08:43:31.320Z,24.31
2022-08-23T08:45:58.719Z,24.76
2022-08-23T08:48:12.718Z,24.68
2022-08-23T08:50:27.431Z,24.99
2022-08-23T08:52:39.186Z,25.15
2022-08-23T08:54:53.377Z,25.33
2022-08-23T08:57:01.218Z,25.39
2022-08-23T08:59:08.427Z,25.53
2022-08-23T09:01:11.776Z,25.82
2022-08-23T09:03:21.087Z,26.03
2022-08-23T09:05:31.480Z,26.23
2022-08-23T09:07:51.409Z,26.33
2022-08-23T09:10:16.751Z,26.41
2022-08-23T09:12:51.979Z,26.53
2022-08-23T09:15:06.814Z,26.68
2022-08-23T09:17:20.843Z,26.87
2022-08-23T09:19:26.384Z,27.07
2022-08-23T09:21:41.813Z,27.06
2022-08-23T09:23:47.387Z,25.79
2022-08-23T09:26:03.824Z,27.14
2022-08-23T09:28:09.638Z,27.12
2022-08-23T09:30:15.005Z,27.38
2022-08-23T09:32:28.695Z,27.45
2022-08-23T09:34:43.739Z,27.41
2022-08-23T09:36:52.248Z,27.65
2022-08-23T09:38:56.839Z,27.77
2022-08-23T09:41:01.572Z,27.84
2022-08-23T09:43:11.273Z,27.72
2022-08-23T09:45:29.756Z,28.14
2022-08-23T09:47:44.524Z,28.28
2022-08-23T09:49:51.466Z,28.31
2022-08-23T09:51:56.297Z,28.03
2022-08-23T09:54:08.135Z,28.62
2022-08-23T09:56:16.597Z,28.82
2022-08-23T09:58:24.612Z,28.90
2022-08-23T10:00:30.318Z,28.79
2022-08-23T10:02:36.121Z,28.77
2022-08-23T10:04:59.311Z,28.83
2022-08-23T10:07:02.371Z,28.99
2022-08-23T10:09:07.723Z,29.15
2022-08-23T10:11:18.929Z,28.67
2022-08-23T10:13:23.191Z,29.32
2022-08-23T10:15:37.026Z,28.93
2022-08-23T10:17:51.033Z,28.77
2022-08-23T10:20:04.943Z,28.71
2022-08-23T10:22:16.140Z,28.73
2022-08-23T10:24:43.500Z,29.44
2022-08-23T10:26:54.742Z,29.22
2022-08-23T10:29:25.736Z,29.09
2022-08-23T10:31:40.578Z,29.26
2022-08-23T10:33:50.469Z,29.46
2022-08-23T10:36:04.581Z,29.99
2022-08-23T10:38:37.737Z,30.09
2022-08-23T10:40:47.369Z,30.47
2022-08-23T10:43:04.450Z,30.59
2022-08-23T10:45:22.583Z,29.97
2022-08-23T10:47:34.810Z,30.94
2022-08-23T10:49:42.097Z,30.57
2022-08-23T10:51:51.830Z,30.79
2022-08-23T10:54:00.552Z,31.07
2022-08-23T10:56:04.933Z,31.29
2022-08-23T10:58:23.993Z,31.21
2022-08-23T11:00:29.204Z,31.18
2022-08-23T11:02:39.323Z,31.31
2022-08-23T11:05:03.206Z,31.28
2022-08-23T11:07:20.684Z,31.53
2022-08-23T11:09:50.999Z,31.92
2022-08-23T11:12:12.940Z,31.28
2022-08-23T11:14:29.123Z,31.71
2022-08-23T11:16:32.716Z,32.31
2022-08-23T11:18:40.774Z,32.22
2022-08-23T11:21:04.349Z,32.58
2022-08-23T11:23:17.443Z,32.81
2022-08-23T11:25:41.965Z,32.78
2022-08-23T11:27:45.722Z,32.60
2022-08-23T11:29:51.121Z,32.70
2022-08-23T11:32:41.516Z,33.03
2022-08-23T11:34:53.084Z,32.59
2022-08-23T11:37:44.352Z,32.76
2022-08-23T11:40:16.074Z,33.27
2022-08-23T11:42:21.132Z,32.78
2022-08-23T11:44:28.336Z,31.81
2022-08-23T11:46:35.741Z,31.95
2022-08-23T11:48:50.826Z,32.05
2022-08-23T11:51:14.010Z,31.41
2022-08-23T11:53:31.649Z,32.18
2022-08-23T11:56:06.696Z,33.08
2022-08-23T11:58:23.915Z,33.56
2022-08-23T12:00:32.376Z,33.77
2022-08-23T12:02:47.723Z,34.00
2022-08-23T12:04:55.522Z,34.03
2022-08-23T12:07:03.161Z,34.06
2022-08-23T12:09:12.244Z,33.78
2022-08-23T12:11:19.455Z,34.36
2022-08-23T12:13:46.581Z,33.68
2022-08-23T12:16:28.892Z,33.86
2022-08-23T12:18:34.569Z,32.80
2022-08-23T12:20:38.399Z,33.36
2022-08-23T12:23:02.150Z,33.79
2022-08-23T12:25:08.613Z,34.16
2022-08-23T12:27:26.580Z,34.75
2022-08-23T12:29:39.575Z,35.06
2022-08-23T12:31:54.321Z,35.11
2022-08-23T12:34:21.230Z,35.41
2022-08-23T12:36:34.704Z,35.73
2022-08-23T12:38:53.729Z,35.87
2022-08-23T12:40:56.914Z,35.56
2022-08-23T12:43:11.871Z,35.92
2022-08-23T12:45:25.057Z,35.96
2022-08-23T12:47:28.213Z,36.04
2022-08-23T12:49:33.257Z,34.73
2022-08-23T12:51:42.094Z,35.74
2022-08-23T12:53:46.075Z,35.37
2022-08-23T12:55:52.313Z,35.95
2022-08-23T12:57:58.087Z,36.38
2022-08-23T13:00:18.460Z,36.47
2022-08-23T13:02:26.789Z,36.48
2022-08-23T13:04:30.718Z,36.56
2022-08-23T13:06:40.494Z,35.56
2022-08-23T13:08:52.442Z,36.27
2022-08-23T13:10:56.903Z,36.70
2022-08-23T13:13:00.805Z,36.98
2022-08-23T13:15:07.122Z,37.00
2022-08-23T13:17:22.975Z,36.79
2022-08-23T13:19:28.227Z,36.41
2022-08-23T13:21:39.492Z,36.64
2022-08-23T13:23:42.982Z,36.84
2022-08-23T13:25:45.814Z,36.96
2022-08-23T13:27:54.433Z,36.27
2022-08-23T13:29:59.512Z,36.53
2022-08-23T13:32:06.900Z,36.73
2022-08-23T13:34:09.687Z,37.13
2022-08-23T13:36:16.699Z,31.85
2022-08-23T13:38:24.425Z,36.92
2022-08-23T13:40:30.911Z,36.33
2022-08-23T13:42:37.482Z,36.91
2022-08-23T13:44:40.608Z,36.61
2022-08-23T13:46:46.659Z,37.18
2022-08-23T13:48:55.572Z,37.59
2022-08-23T13:51:21.940Z,37.73
2022-08-23T13:53:24.782Z,37.76
2022-08-23T13:55:29.186Z,37.59
2022-08-23T13:57:32.255Z,37.34
2022-08-23T13:59:38.353Z,37.17
2022-08-23T14:01:41.218Z,37.31
2022-08-23T14:03:44.064Z,37.41
2022-08-23T14:05:48.173Z,36.19
2022-08-23T14:07:52.914Z,35.69
2022-08-23T14:09:57.177Z,36.35
2022-08-23T14:12:03.092Z,36.67
2022-08-23T14:14:06.884Z,37.27
2022-08-23T14:18:32.996Z,37.12
2022-08-23T14:20:44.055Z,36.84
2022-08-23T14:22:49.833Z,37.11
2022-08-23T14:24:52.592Z,37.33
2022-08-23T14:26:55.973Z,37.34
2022-08-23T14:28:58.797Z,37.49
2022-08-23T14:31:02.595Z,36.68
2022-08-23T14:33:06.321Z,36.12
2022-08-23T14:35:11.083Z,36.79
2022-08-23T14:38:01.923Z,37.53
2022-08-23T14:39:38.302Z,36.70
2022-08-23T14:41:41.096Z,37.65
2022-08-23T14:43:43.936Z,37.61
2022-08-23T14:45:46.915Z,37.40
2022-08-23T14:47:49.813Z,37.02
2022-08-23T14:49:54.029Z,37.10
2022-08-23T14:51:57.131Z,37.42
2022-08-23T14:54:00.599Z,37.48
2022-08-23T14:56:20.464Z,37.88
2022-08-23T14:58:26.139Z,37.18
2022-08-23T15:00:29.157Z,37.94
2022-08-23T15:02:32.020Z,38.13
2022-08-23T15:04:35.151Z,38.28
2022-08-23T15:07:00.491Z,38.46
2022-08-23T15:09:03.482Z,38.32
2022-08-23T15:13:35.476Z,37.59
2022-08-23T15:15:40.469Z,38.06
2022-08-23T15:17:51.923Z,37.54
2022-08-23T15:19:54.927Z,38.62
2022-08-23T15:21:58.090Z,38.62
2022-08-23T15:24:01.058Z,38.77
2022-08-23T15:26:04.838Z,38.63
2022-08-23T15:28:13.238Z,38.58
2022-08-23T15:30:16.986Z,38.54
2022-08-23T15:32:22.554Z,38.48
2022-08-23T15:34:25.975Z,38.34
2022-08-23T15:36:29.107Z,38.52
2022-08-23T15:38:32.628Z,37.92
2022-08-23T15:40:35.575Z,38.89
2022-08-23T15:42:38.663Z,38.98
2022-08-23T15:44:42.826Z,38.92
2022-08-23T15:46:48.288Z,38.16
2022-08-23T15:48:56.286Z,38.58
2022-08-23T15:51:00.479Z,38.89
2022-08-23T15:53:03.750Z,37.86
2022-08-23T15:55:08.114Z,39.01
2022-08-23T15:57:15.835Z,39.46
2022-08-23T15:59:21.501Z,39.66
2022-08-23T16:01:27.845Z,39.67
2022-08-23T16:03:30.899Z,39.50
2022-08-23T16:05:34.037Z,39.49
2022-08-23T16:07:37.334Z,39.64
2022-08-23T16:09:40.874Z,39.81
2022-08-23T16:11:43.920Z,39.89
2022-08-23T16:13:49.690Z,39.98
2022-08-23T16:15:56.634Z,40.08
2022-08-23T16:18:00.913Z,40.04
2022-08-23T16:20:05.295Z,39.59
2022-08-23T16:22:08.462Z,40.17
2022-08-23T16:24:11.539Z,40.17
2022-08-23T16:26:18.132Z,40.04
2022-08-23T16:28:24.462Z,40.28
2022-08-23T16:30:29.066Z,40.57
2022-08-23T16:32:31.902Z,40.74
2022-08-23T16:34:36.937Z,40.45
2022-08-23T16:36:41.239Z,39.48
2022-08-23T16:38:44.484Z,39.76
2022-08-23T16:40:47.249Z,39.72
2022-08-23T16:42:50.197Z,39.65
2022-08-23T16:44:53.045Z,39.51
2022-08-23T16:46:56.386Z,39.67
2022-08-23T16:48:59.248Z,39.93
2022-08-23T16:51:03.474Z,40.04
2022-08-23T16:53:07.479Z,39.79
2022-08-23T16:55:12.731Z,39.85
2022-08-23T16:57:17.653Z,39.89
2022-08-23T16:59:20.437Z,39.93
2022-08-23T17:01:23.832Z,39.58
2022-08-23T17:03:27.497Z,39.75
2022-08-23T17:05:30.334Z,39.40
2022-08-23T17:07:34.558Z,39.66
2022-08-23T17:09:37.343Z,38.94
2022-08-23T17:11:41.817Z,39.60
2022-08-23T17:13:44.754Z,39.50
2022-08-23T17:15:47.630Z,38.75
2022-08-23T17:17:51.222Z,38.44
2022-08-23T17:19:54.193Z,38.31
2022-08-23T17:21:57.045Z,38.17
2022-08-23T17:24:01.549Z,38.20
2022-08-23T17:26:04.330Z,37.79
2022-08-23T17:28:07.203Z,38.01
2022-08-23T17:30:14.167Z,37.79
2022-08-23T17:32:17.006Z,37.74
2022-08-23T17:34:19.853Z,37.76
2022-08-23T17:36:34.299Z,37.24
2022-08-23T17:38:37.222Z,37.14
2022-08-23T17:40:41.834Z,36.77
2022-08-23T17:42:46.106Z,36.36
2022-08-23T17:44:49.009Z,35.77
2022-08-23T17:46:52.117Z,34.92
2022-08-23T17:48:55.009Z,34.69
2022-08-23T17:50:59.670Z,34.42
2022-08-23T17:53:04.419Z,31.87
2022-08-23T17:55:10.654Z,33.24
2022-08-23T17:57:15.019Z,32.85
2022-08-23T17:59:19.473Z,32.53
2022-08-23T18:01:22.835Z,32.07
2022-08-23T18:03:25.730Z,31.55
2022-08-23T18:05:30.487Z,31.43
2022-08-23T18:07:33.407Z,31.11
2022-08-23T18:09:40.034Z,30.81
2022-08-23T18:11:51.404Z,30.43
2022-08-23T18:13:55.624Z,30.31
2022-08-23T18:15:58.439Z,29.99
2022-08-23T18:18:02.342Z,29.77
2022-08-23T18:20:07.309Z,29.64
2022-08-23T18:22:10.410Z,28.68
2022-08-23T18:24:14.348Z,29.25
2022-08-23T18:26:31.077Z,28.53
2022-08-23T18:28:34.079Z,28.80
2022-08-23T18:30:41.364Z,28.78
2022-08-23T18:32:44.785Z,27.48
2022-08-23T18:34:47.567Z,27.92
2022-08-23T18:36:50.615Z,28.11
2022-08-23T18:38:53.406Z,27.73
2022-08-23T18:40:56.212Z,27.70
2022-08-23T18:42:59.239Z,27.36
2022-08-23T18:45:04.519Z,27.19
2022-08-23T18:47:09.784Z,27.13
2022-08-23T18:49:13.605Z,27.12
2022-08-23T18:51:18.007Z,25.61
2022-08-23T18:53:22.130Z,26.77
2022-08-23T18:55:25.168Z,26.13
2022-08-23T18:57:27.944Z,26.34
2022-08-23T18:59:30.840Z,26.32
2022-08-23T19:01:36.978Z,26.23
2022-08-23T19:03:41.191Z,26.36
2022-08-23T19:05:44.420Z,26.13
2022-08-23T19:07:47.225Z,26.08
2022-08-23T19:09:50.651Z,26.26
2022-08-23T19:11:53.556Z,25.84
2022-08-23T19:13:57.182Z,25.57
2022-08-23T19:16:00.053Z,25.67
2022-08-23T19:18:04.206Z,25.49
2022-08-23T19:20:09.608Z,25.58
2022-08-23T19:22:12.673Z,25.22
2022-08-23T19:24:15.489Z,25.33
2022-08-23T19:26:23.606Z,25.46
2022-08-23T19:28:26.357Z,25.47
2022-08-23T19:30:29.143Z,25.36
2022-08-23T19:32:34.401Z,24.54
2022-08-23T19:34:37.185Z,25.33
2022-08-23T19:36:56.748Z,25.48
2022-08-23T19:39:03.869Z,25.64
2022-08-23T19:41:06.742Z,25.46
2022-08-23T19:43:10.069Z,25.35
2022-08-23T19:45:13.544Z,25.54
2022-08-23T19:47:19.637Z,25.53
2022-08-23T19:49:23.277Z,25.57
2022-08-23T19:51:26.258Z,25.33
2022-08-23T19:53:30.386Z,25.37
2022-08-23T19:55:34.369Z,25.41
2022-08-23T19:57:38.472Z,25.32
2022-08-23T19:59:41.439Z,25.42
2022-08-23T20:01:44.462Z,25.06
2022-08-23T20:03:47.303Z,25.53
2022-08-23T20:05:51.538Z,25.55
2022-08-23T20:07:54.879Z,25.59
2022-08-23T20:09:58.922Z,25.49
2022-08-23T20:12:02.260Z,25.51
2022-08-23T20:14:06.904Z,25.40
2022-08-23T20:16:09.695Z,25.36
2022-08-23T20:18:12.498Z,25.17
2022-08-23T20:20:15.223Z,25.11
2022-08-23T20:22:35.576Z,24.19
2022-08-23T20:24:50.766Z,25.03
2022-08-23T20:26:55.367Z,24.99
2022-08-23T20:29:00.153Z,24.98
2022-08-23T20:31:07.448Z,25.02
2022-08-23T20:33:10.416Z,24.52
2022-08-23T20:35:13.519Z,25.04
2022-08-23T20:37:16.300Z,25.07
2022-08-23T20:39:23.756Z,24.51
2022-08-23T20:41:27.809Z,25.05
2022-08-23T20:43:33.650Z,24.29
2022-08-23T20:45:36.409Z,25.10
2022-08-23T20:47:40.284Z,25.01
2022-08-23T20:49:43.136Z,25.11
2022-08-23T20:51:46.446Z,25.03
2022-08-23T20:53:50.572Z,24.43
2022-08-23T20:55:53.935Z,25.06
2022-08-23T20:57:56.764Z,25.00
2022-08-23T21:00:01.261Z,25.03
2022-08-23T21:02:04.182Z,25.00
2022-08-23T21:04:07.805Z,24.91
2022-08-23T21:06:20.086Z,24.80
2022-08-23T21:08:23.706Z,24.79
2022-08-23T21:10:28.170Z,24.79
2022-08-23T21:12:30.955Z,24.76
2022-08-23T21:14:33.774Z,24.59
2022-08-23T21:16:37.984Z,24.62
2022-08-23T21:18:41.586Z,24.71
2022-08-23T21:20:44.391Z,24.66
2022-08-23T21:22:47.219Z,24.61
2022-08-23T21:24:50.706Z,24.47
2022-08-23T21:26:53.512Z,24.36
2022-08-23T21:28:56.245Z,24.19
2022-08-23T21:31:05.753Z,24.32
2022-08-23T21:33:09.950Z,23.56
2022-08-23T21:35:13.768Z,24.32
2022-08-23T21:37:16.616Z,24.32
2022-08-23T21:39:19.368Z,24.39
2022-08-23T21:41:35.303Z,24.35
2022-08-23T21:43:38.736Z,24.13
2022-08-23T21:45:43.293Z,24.47
2022-08-23T21:47:46.100Z,24.45
2022-08-23T21:49:50.225Z,24.41
2022-08-23T21:51:54.337Z,24.41
2022-08-23T21:53:57.426Z,24.32
2022-08-23T21:56:00.529Z,24.32
2022-08-23T21:58:03.314Z,24.26
2022-08-23T22:00:09.675Z,24.15
2022-08-23T22:02:15.534Z,24.09
2022-08-23T22:04:18.405Z,24.00
2022-08-23T22:06:22.595Z,23.93
2022-08-23T22:08:25.333Z,23.92
2022-08-23T22:10:28.193Z,23.91
2022-08-23T22:12:31.268Z,23.94
2022-08-23T22:14:34.446Z,24.01
2022-08-23T22:16:37.481Z,24.05
2022-08-23T22:18:40.725Z,24.08
2022-08-23T22:20:43.531Z,24.08
2022-08-23T22:22:47.688Z,24.03
2022-08-23T22:24:50.433Z,23.91
2022-08-23T22:26:53.328Z,23.79
2022-08-23T22:28:57.105Z,23.28
2022-08-23T22:31:01.688Z,23.58
2022-08-23T22:33:04.902Z,23.66
2022-08-23T22:35:10.627Z,23.55
2022-08-23T22:37:13.400Z,23.48
2022-08-23T22:39:17.804Z,23.35
2022-08-23T22:41:23.947Z,23.55
2022-08-23T22:43:28.511Z,23.52
2022-08-23T22:45:31.277Z,23.68
2022-08-23T22:47:34.079Z,23.71
2022-08-23T22:49:36.885Z,23.68
2022-08-23T22:51:39.915Z,23.68
2022-08-23T22:53:45.342Z,23.35
2022-08-23T22:55:52.377Z,23.49
2022-08-23T22:57:55.154Z,23.42
2022-08-23T22:59:58.061Z,22.99
2022-08-23T23:02:03.263Z,23.46
2022-08-23T23:04:08.393Z,23.34
2022-08-23T23:06:11.367Z,23.47
2022-08-23T23:08:28.347Z,23.49
2022-08-23T23:10:31.139Z,23.51
2022-08-23T23:12:35.256Z,23.31
2022-08-23T23:14:38.011Z,23.38
2022-08-23T23:16:41.223Z,23.02
2022-08-23T23:19:05.512Z,21.98
2022-08-23T23:21:08.337Z,22.28
2022-08-23T23:23:14.644Z,22.29
2022-08-23T23:25:17.440Z,20.61
2022-08-23T23:27:20.273Z,22.34
2022-08-23T23:29:25.375Z,22.48
2022-08-23T23:31:28.400Z,22.52
2022-08-23T23:33:31.205Z,22.48
2022-08-23T23:35:35.466Z,22.49
2022-08-23T23:37:38.601Z,22.44
2022-08-23T23:39:41.492Z,22.32
2022-08-23T23:41:44.463Z,22.21
2022-08-23T23:43:47.375Z,22.04
2022-08-23T23:45:51.605Z,21.77
2022-08-23T23:47:54.819Z,21.77
2022-08-23T23:49:57.951Z,21.90
2022-08-23T23:52:01.021Z,22.04
2022-08-23T23:54:03.900Z,21.90
2022-08-23T23:56:13.343Z,21.92
2022-08-23T23:58:16.124Z,22.05
